Milford, MI (48380)

2:57 AM EST on January 20, 2017 (GMT -0500)
West Milford Township | | Change Station

Elev 994 ft 42.59 °N, 83.63 °W | Updated 2 minutes ago

Fog
Fog
32.5 °F
Feels Like 32 °F
N
2.2
Wind Variable Wind from ESE
Gusts 5.8 mph

Today
High -- | Low -- °F
--% Chance of Precip.
Yesterday
High -- | Low -- °F
Precip. -- in
Pressure 29.80 in
Visibility 0.5 miles
Clouds
Windchill 32 °F
Dew Point 30 °F
Humidity 89%
Rainfall Not available.
Snow Depth Not available.
7:58 AM 5:33 PM
Last Quarter, 46% visible
METAR KPTK 200753Z 11008KT 1/2SM R09R/2000V2400FT FG VV002 00/M01 A2978 RMK AO2 SLP091 I1002 T00001011
Pressure 29.80 in
Visibility 0.5 miles
Clouds
Windchill 32 °F
Dew Point 30 °F
Humidity 89%
Rainfall Not available.
Snow Depth Not available.
7:58 AM 5:33 PM
Last Quarter, 46% visible
METAR KPTK 200753Z 11008KT 1/2SM R09R/2000V2400FT FG VV002 00/M01 A2978 RMK AO2 SLP091 I1002 T00001011

Get Your Daily Forecast Email!

Thanks for signing up!

Be on the lookout for a verification email in your inbox.

You'll start receiving the daily forecast at 8 AM.

×

10-Day Weather Forecast

Almanac

Astronomy

Jan. 20, 2017 Rise Set
Actual Time
Civil Twilight
Nautical Twilight
Astronomical Twilight
Moon
Length of Visible Light
Length of Day
Tomorrow will be .
, % of the Moon is Illuminated

Today's Extremes

State Highs State Lows

Community

WunderPhotos

Upload Photos

1,962,540 photos uploaded!

WunderBlog® & News

Nearby

Air Quality

  Air Quality AQ Index Pollutant
Not available.

Snow Depth

Station Depth Elevation

Earthquake Activity

City Distance Mag. Time & Date
Minimum magnitude displayed is 2.5.

Coastal Water Temperatures

Place Temperature

Stations

Nearby Weather Stations

Station Location Temp. Windchill Dew Point Humidity Wind Precip. Elev Updated Type
                   

Watches & Warnings

There are currently no watches in effect.